createdAt,value
2019-06-26T00:00:09.138Z,29.35
2019-06-26T00:00:45.211Z,29.31
2019-06-26T00:01:21.161Z,29.33
2019-06-26T00:01:57.098Z,29.38
2019-06-26T00:02:32.949Z,29.40
2019-06-26T00:03:08.806Z,29.40
2019-06-26T00:03:44.674Z,29.38
2019-06-26T00:04:20.685Z,29.38
2019-06-26T00:04:56.801Z,29.42
2019-06-26T00:05:32.727Z,29.41
2019-06-26T00:06:08.728Z,29.46
2019-06-26T00:06:44.554Z,29.46
2019-06-26T00:07:20.407Z,29.44
2019-06-26T00:07:56.326Z,29.51
2019-06-26T00:08:32.180Z,29.54
2019-06-26T00:09:10.415Z,29.54
2019-06-26T00:09:46.330Z,29.56
2019-06-26T00:10:22.346Z,29.56
2019-06-26T00:10:58.254Z,29.53
2019-06-26T00:11:34.087Z,29.61
2019-06-26T00:12:09.925Z,29.61
2019-06-26T00:12:45.794Z,29.57
2019-06-26T00:13:26.202Z,29.57
2019-06-26T00:13:59.238Z,29.64
2019-06-26T00:14:38.585Z,29.66
2019-06-26T00:15:12.840Z,29.67
2019-06-26T00:15:49.777Z,29.67
2019-06-26T00:16:25.585Z,29.69
2019-06-26T00:17:01.359Z,29.64
2019-06-26T00:17:37.234Z,29.70
2019-06-26T00:18:13.072Z,29.70
2019-06-26T00:18:48.945Z,29.70
2019-06-26T00:19:24.986Z,29.70
2019-06-26T00:20:00.919Z,29.66
2019-06-26T00:20:36.805Z,29.67
2019-06-26T00:21:12.646Z,29.67
2019-06-26T00:21:48.632Z,29.67
2019-06-26T00:22:24.441Z,29.74
2019-06-26T00:23:00.284Z,29.74
2019-06-26T00:23:36.829Z,29.74
2019-06-26T00:24:23.779Z,29.74
2019-06-26T00:24:59.748Z,29.70
2019-06-26T00:25:36.581Z,29.75
2019-06-26T00:26:14.829Z,29.73
2019-06-26T00:26:50.808Z,29.73
2019-06-26T00:27:26.817Z,29.71
2019-06-26T00:28:04.474Z,29.80
2019-06-26T00:28:41.081Z,29.77
2019-06-26T00:29:16.997Z,29.85
2019-06-26T00:29:52.880Z,29.87
2019-06-26T00:30:29.827Z,29.87
2019-06-26T00:31:05.860Z,29.91
2019-06-26T00:31:41.731Z,29.91
2019-06-26T00:32:17.571Z,29.92
2019-06-26T00:32:55.765Z,29.95
2019-06-26T00:33:34.647Z,29.95
2019-06-26T00:34:12.859Z,30.00
2019-06-26T00:34:50.550Z,30.00
2019-06-26T00:35:31.207Z,29.98
2019-06-26T00:36:07.185Z,29.98
2019-06-26T00:36:46.003Z,30.05
2019-06-26T00:37:22.554Z,30.08
2019-06-26T00:37:58.445Z,30.08
2019-06-26T00:38:41.504Z,30.10
2019-06-26T00:39:19.696Z,30.11
2019-06-26T00:40:03.118Z,30.08
2019-06-26T00:40:39.060Z,30.08
2019-06-26T00:41:14.928Z,30.12
2019-06-26T00:41:52.883Z,30.12
2019-06-26T00:42:33.560Z,30.12
2019-06-26T00:43:09.447Z,30.12
2019-06-26T00:43:46.306Z,30.07
2019-06-26T00:44:22.159Z,30.12
2019-06-26T00:44:57.984Z,30.12
2019-06-26T00:45:38.082Z,30.12
2019-06-26T00:46:17.182Z,30.12
2019-06-26T00:46:55.346Z,30.13
2019-06-26T00:47:31.420Z,30.13
2019-06-26T00:48:07.390Z,30.14
2019-06-26T00:48:47.543Z,30.14
2019-06-26T00:49:24.522Z,30.14
2019-06-26T00:50:03.761Z,30.16
2019-06-26T00:50:48.013Z,30.16
2019-06-26T00:51:23.927Z,30.20
2019-06-26T00:52:00.010Z,30.21
2019-06-26T00:52:43.005Z,30.22
2019-06-26T00:53:21.038Z,30.18
2019-06-26T00:53:57.134Z,30.18
2019-06-26T00:54:33.852Z,30.26
2019-06-26T00:55:09.843Z,30.24
2019-06-26T00:55:55.286Z,30.28
2019-06-26T00:56:33.103Z,30.29
2019-06-26T00:57:08.982Z,30.31
2019-06-26T00:57:45.009Z,30.32
2019-06-26T00:58:29.453Z,30.35
2019-06-26T00:59:06.115Z,30.38
2019-06-26T00:59:42.903Z,30.42
2019-06-26T01:00:27.124Z,30.49
2019-06-26T01:01:11.988Z,30.59
2019-06-26T01:01:51.743Z,30.69
2019-06-26T01:02:32.303Z,30.79
2019-06-26T01:03:14.479Z,30.88
2019-06-26T01:04:50.506Z,31.01
2019-06-26T01:05:31.656Z,31.01
2019-06-26T01:06:13.555Z,31.01
2019-06-26T01:06:58.899Z,31.01
2019-06-26T01:07:34.822Z,31.02
2019-06-26T01:08:19.172Z,31.09
2019-06-26T01:08:55.818Z,31.20
2019-06-26T01:09:34.726Z,31.33
2019-06-26T01:10:11.321Z,31.44
2019-06-26T01:10:52.289Z,31.50
2019-06-26T01:11:30.856Z,31.49
2019-06-26T01:12:08.879Z,31.47
2019-06-26T01:12:47.475Z,31.44
2019-06-26T01:13:31.937Z,31.50
2019-06-26T01:14:12.079Z,31.50
2019-06-26T01:14:50.116Z,31.52
2019-06-26T01:16:20.881Z,31.59
2019-06-26T01:17:53.230Z,31.67
2019-06-26T01:18:33.659Z,31.75
2019-06-26T01:19:22.660Z,31.80
2019-06-26T01:20:01.160Z,31.90
2019-06-26T01:20:39.501Z,31.95
2019-06-26T01:22:23.624Z,32.08
2019-06-26T01:23:05.274Z,32.19
2019-06-26T01:23:47.060Z,32.24
2019-06-26T01:24:38.291Z,32.29
2019-06-26T01:25:14.167Z,32.32
2019-06-26T01:25:50.085Z,32.34
2019-06-26T01:26:28.735Z,32.37
2019-06-26T01:27:09.146Z,32.40
2019-06-26T01:27:48.156Z,32.45
2019-06-26T01:28:24.705Z,32.49
2019-06-26T01:29:00.612Z,32.53
2019-06-26T01:29:40.553Z,32.56
2019-06-26T01:30:17.364Z,32.59
2019-06-26T01:30:56.821Z,32.62
2019-06-26T01:31:36.673Z,32.63
2019-06-26T01:32:14.139Z,32.66
2019-06-26T01:32:57.983Z,32.68
2019-06-26T01:33:34.899Z,32.72
2019-06-26T01:34:12.440Z,32.74
2019-06-26T01:34:59.841Z,32.75
2019-06-26T01:35:40.284Z,32.77
2019-06-26T01:36:19.096Z,32.78
2019-06-26T01:37:06.677Z,32.80
2019-06-26T01:37:49.291Z,32.84
2019-06-26T01:38:33.501Z,32.85
2019-06-26T01:40:04.922Z,32.88
2019-06-26T01:40:41.970Z,32.91
2019-06-26T01:41:23.315Z,32.97
2019-06-26T01:42:04.088Z,33.03
2019-06-26T01:42:42.327Z,33.12
2019-06-26T01:43:19.110Z,33.18
2019-06-26T01:43:55.014Z,33.17
2019-06-26T01:44:34.986Z,33.24
2019-06-26T01:45:11.713Z,33.37
2019-06-26T01:45:56.266Z,33.46
2019-06-26T01:47:30.745Z,33.48
2019-06-26T01:48:10.372Z,33.65
2019-06-26T01:48:48.663Z,33.73
2019-06-26T01:49:27.277Z,33.69
2019-06-26T01:50:04.269Z,33.63
2019-06-26T01:50:42.546Z,33.61
2019-06-26T01:51:19.291Z,33.57
2019-06-26T01:52:01.297Z,33.56
2019-06-26T01:52:50.141Z,33.60
2019-06-26T01:53:27.637Z,33.66
2019-06-26T01:55:07.111Z,33.79
2019-06-26T01:55:47.805Z,33.78
2019-06-26T01:56:35.230Z,33.77
2019-06-26T01:57:11.379Z,33.80
2019-06-26T01:57:52.131Z,33.89
2019-06-26T01:59:32.059Z,34.03
2019-06-26T02:00:08.959Z,34.09
2019-06-26T02:00:57.056Z,34.15
2019-06-26T02:01:41.897Z,34.25
2019-06-26T02:02:22.006Z,34.27
2019-06-26T02:03:53.673Z,34.34
2019-06-26T02:04:29.471Z,34.30
2019-06-26T02:05:06.344Z,34.27
2019-06-26T02:05:50.949Z,34.16
2019-06-26T02:06:26.838Z,34.06
2019-06-26T02:07:02.946Z,34.00
2019-06-26T02:07:40.421Z,33.98
2019-06-26T02:08:16.789Z,33.94
2019-06-26T02:08:55.612Z,33.93
2019-06-26T02:10:28.274Z,33.79
2019-06-26T02:11:18.501Z,33.91
2019-06-26T02:12:03.158Z,34.01
2019-06-26T02:12:41.720Z,34.15
2019-06-26T02:13:22.225Z,34.29
2019-06-26T02:13:59.690Z,34.38
2019-06-26T02:14:44.980Z,34.50
2019-06-26T02:15:21.837Z,34.50
2019-06-26T02:15:58.652Z,34.49
2019-06-26T02:16:34.950Z,34.47
2019-06-26T02:17:10.818Z,34.45
2019-06-26T02:17:47.029Z,34.42
2019-06-26T02:18:41.978Z,34.56
2019-06-26T02:19:18.557Z,34.68
2019-06-26T02:19:55.572Z,34.83
2019-06-26T02:20:36.820Z,34.91
2019-06-26T02:21:12.636Z,34.93
2019-06-26T02:21:49.750Z,34.96
2019-06-26T02:22:34.172Z,34.98
2019-06-26T02:23:10.898Z,35.04
2019-06-26T02:23:50.317Z,35.01
2019-06-26T02:24:28.765Z,34.97
2019-06-26T02:25:12.726Z,34.92
2019-06-26T02:25:50.524Z,34.85
2019-06-26T02:26:29.694Z,34.76
2019-06-26T02:28:19.366Z,34.61
2019-06-26T02:28:59.351Z,34.54
2019-06-26T02:29:36.968Z,34.49
2019-06-26T02:30:13.638Z,34.46
2019-06-26T02:30:51.989Z,34.44
2019-06-26T02:31:32.213Z,34.44
2019-06-26T02:32:08.908Z,34.48
2019-06-26T02:32:46.922Z,34.57
2019-06-26T02:33:28.846Z,34.67
2019-06-26T02:34:06.844Z,34.79
2019-06-26T02:34:46.633Z,35.04
2019-06-26T02:35:23.082Z,35.18
2019-06-26T02:36:00.560Z,35.21
2019-06-26T02:36:38.069Z,35.19
2019-06-26T02:37:22.236Z,35.18
2019-06-26T02:38:12.680Z,35.13
2019-06-26T02:38:48.551Z,35.04
2019-06-26T02:39:24.980Z,34.99
2019-06-26T02:40:00.989Z,34.98
2019-06-26T02:40:36.919Z,34.94
2019-06-26T02:41:13.746Z,34.98
2019-06-26T02:41:49.734Z,34.97
2019-06-26T02:42:30.676Z,35.06
2019-06-26T02:43:09.878Z,35.12
2019-06-26T02:43:48.528Z,35.12
2019-06-26T02:44:24.406Z,35.16
2019-06-26T02:45:09.643Z,35.24
2019-06-26T02:45:46.757Z,35.31
2019-06-26T02:46:22.693Z,35.34
2019-06-26T02:47:18.328Z,35.35
2019-06-26T02:47:41.520Z,35.34
2019-06-26T02:48:20.533Z,35.29
2019-06-26T02:48:58.941Z,35.23
2019-06-26T02:49:35.073Z,35.16
2019-06-26T02:50:10.933Z,35.12
2019-06-26T02:50:56.422Z,35.06
2019-06-26T02:51:32.380Z,35.01
2019-06-26T02:52:08.991Z,34.96
2019-06-26T02:52:45.447Z,34.90
2019-06-26T02:53:21.562Z,34.85
2019-06-26T02:53:57.534Z,34.79
2019-06-26T02:54:33.433Z,34.70
2019-06-26T02:55:09.979Z,34.67
2019-06-26T02:55:45.917Z,34.60
2019-06-26T02:56:21.875Z,34.53
2019-06-26T02:56:57.737Z,34.43
2019-06-26T02:57:33.592Z,34.39
2019-06-26T02:58:09.459Z,34.36
2019-06-26T02:58:45.420Z,34.32
2019-06-26T02:59:21.863Z,34.24
2019-06-26T02:59:58.914Z,34.23
2019-06-26T03:00:34.703Z,34.22
2019-06-26T03:01:10.660Z,34.18
2019-06-26T03:01:46.538Z,34.20
2019-06-26T03:02:22.364Z,34.13
2019-06-26T03:02:58.272Z,34.15
2019-06-26T03:03:34.168Z,34.17
2019-06-26T03:04:10.031Z,34.16
2019-06-26T03:04:45.812Z,34.17
2019-06-26T03:05:21.637Z,34.19
2019-06-26T03:05:57.704Z,34.21
2019-06-26T03:06:33.529Z,34.22
2019-06-26T03:07:09.396Z,34.18
2019-06-26T03:07:48.150Z,34.18
2019-06-26T03:08:23.985Z,34.19
2019-06-26T03:08:59.843Z,34.19
2019-06-26T03:09:35.688Z,34.19
2019-06-26T03:10:12.043Z,34.16
2019-06-26T03:10:47.902Z,34.12
2019-06-26T03:11:24.003Z,34.11
2019-06-26T03:11:59.874Z,34.12
2019-06-26T03:12:35.718Z,34.12
2019-06-26T03:13:11.667Z,34.11
2019-06-26T03:13:47.463Z,34.09
2019-06-26T03:14:23.779Z,34.00
2019-06-26T03:15:08.987Z,34.01
2019-06-26T03:15:37.293Z,34.03
2019-06-26T03:16:13.145Z,34.03
2019-06-26T03:16:48.963Z,34.00
2019-06-26T03:17:24.752Z,34.02
2019-06-26T03:18:00.588Z,34.02
2019-06-26T03:18:36.793Z,34.04
2019-06-26T03:19:12.665Z,34.03
2019-06-26T03:19:48.463Z,34.04
2019-06-26T03:20:27.396Z,34.06
2019-06-26T03:21:03.229Z,34.10
2019-06-26T03:21:39.083Z,34.10
2019-06-26T03:22:14.842Z,34.09
2019-06-26T03:22:50.658Z,34.09
2019-06-26T03:23:26.499Z,34.10
2019-06-26T03:24:02.312Z,34.09
2019-06-26T03:24:38.197Z,34.08
2019-06-26T03:25:14.177Z,34.05
2019-06-26T03:25:50.012Z,34.05
2019-06-26T03:26:25.843Z,34.04
2019-06-26T03:27:01.694Z,34.05
2019-06-26T03:27:37.683Z,34.07
2019-06-26T03:28:14.620Z,34.07
2019-06-26T03:28:50.764Z,34.06
2019-06-26T03:29:27.073Z,34.10
2019-06-26T03:30:03.140Z,34.11
2019-06-26T03:30:39.291Z,34.11
2019-06-26T03:31:15.355Z,34.14
2019-06-26T03:31:51.575Z,34.15
2019-06-26T03:32:27.832Z,34.14
2019-06-26T03:33:04.190Z,34.15
2019-06-26T03:33:41.292Z,34.20
2019-06-26T03:34:17.378Z,34.23
2019-06-26T03:34:53.648Z,34.27
2019-06-26T03:35:29.902Z,34.31
2019-06-26T03:36:06.042Z,34.33
2019-06-26T03:36:42.406Z,34.36
2019-06-26T03:37:18.639Z,34.39
2019-06-26T03:37:54.891Z,34.37
2019-06-26T03:38:31.148Z,34.42
2019-06-26T03:39:08.653Z,34.43
2019-06-26T03:39:44.959Z,34.45
2019-06-26T03:40:21.169Z,34.44
2019-06-26T03:40:57.384Z,34.44
2019-06-26T03:41:33.622Z,34.39
2019-06-26T03:42:09.876Z,34.39
2019-06-26T03:42:46.141Z,34.39
2019-06-26T03:43:22.475Z,34.39
2019-06-26T03:43:58.751Z,34.38
2019-06-26T03:44:35.020Z,34.39
2019-06-26T03:45:24.637Z,34.35
2019-06-26T03:45:48.922Z,34.36
2019-06-26T03:46:24.826Z,34.39
2019-06-26T03:47:00.671Z,34.43
2019-06-26T03:47:36.631Z,34.44
2019-06-26T03:48:12.512Z,34.44
2019-06-26T03:48:48.460Z,34.47
2019-06-26T03:49:24.332Z,34.48
2019-06-26T03:50:00.278Z,34.46
2019-06-26T03:50:36.447Z,34.46
2019-06-26T03:51:14.113Z,34.43
2019-06-26T03:51:50.475Z,34.38
2019-06-26T03:52:26.605Z,34.38
2019-06-26T03:53:02.920Z,34.36
2019-06-26T03:53:39.022Z,34.32
2019-06-26T03:54:15.148Z,34.33
2019-06-26T03:54:51.425Z,34.33
2019-06-26T03:55:27.567Z,34.31
2019-06-26T03:56:03.645Z,34.34
2019-06-26T03:56:39.802Z,34.30
2019-06-26T03:57:15.937Z,34.33
2019-06-26T03:57:52.045Z,34.30
2019-06-26T03:58:28.125Z,34.30
2019-06-26T03:59:04.239Z,34.31
2019-06-26T03:59:40.327Z,34.31
2019-06-26T04:00:17.995Z,34.28
2019-06-26T04:00:54.226Z,34.22
2019-06-26T04:01:30.329Z,34.20
2019-06-26T04:02:06.561Z,34.18
2019-06-26T04:02:42.648Z,34.18
2019-06-26T04:03:18.800Z,34.17
2019-06-26T04:03:57.373Z,34.19
2019-06-26T04:04:32.836Z,34.20
2019-06-26T04:05:09.016Z,34.23
2019-06-26T04:05:45.089Z,34.20
2019-06-26T04:06:21.406Z,34.15
2019-06-26T04:06:57.563Z,34.13
2019-06-26T04:07:33.764Z,34.05
2019-06-26T04:08:09.977Z,34.06
2019-06-26T04:08:46.299Z,33.99
2019-06-26T04:09:22.407Z,34.02
2019-06-26T04:09:58.459Z,34.06
2019-06-26T04:10:34.652Z,34.12
2019-06-26T04:11:10.903Z,34.14
2019-06-26T04:11:47.141Z,34.16
2019-06-26T04:12:23.298Z,34.21
2019-06-26T04:12:59.409Z,34.27
2019-06-26T04:13:35.697Z,34.28
2019-06-26T04:14:11.762Z,34.32
2019-06-26T04:14:47.911Z,34.36
2019-06-26T04:15:24.088Z,34.44
2019-06-26T04:16:00.278Z,34.49
2019-06-26T04:16:36.421Z,34.55
2019-06-26T04:17:12.661Z,34.58
2019-06-26T04:17:48.601Z,34.61
2019-06-26T04:18:24.631Z,34.65
2019-06-26T04:19:00.653Z,34.65
2019-06-26T04:19:36.892Z,34.65
2019-06-26T04:20:12.737Z,34.68
2019-06-26T04:20:48.656Z,34.71
2019-06-26T04:21:24.444Z,34.77
2019-06-26T04:22:00.277Z,34.83
2019-06-26T04:22:36.108Z,34.84
2019-06-26T04:23:11.997Z,34.86
2019-06-26T04:23:47.804Z,34.86
2019-06-26T04:24:23.633Z,34.90
2019-06-26T04:24:59.609Z,34.89
2019-06-26T04:25:38.150Z,34.83
2019-06-26T04:26:13.062Z,34.84
2019-06-26T04:26:48.913Z,34.81
2019-06-26T04:27:25.942Z,34.80
2019-06-26T04:28:02.068Z,34.77
2019-06-26T04:28:38.054Z,34.75
2019-06-26T04:29:13.911Z,34.73
2019-06-26T04:29:49.737Z,34.72
2019-06-26T04:30:25.733Z,34.68
2019-06-26T04:31:01.579Z,34.60
2019-06-26T04:31:37.450Z,34.61
2019-06-26T04:32:13.314Z,34.56
2019-06-26T04:32:49.167Z,34.57
2019-06-26T04:33:24.985Z,34.58
2019-06-26T04:34:00.796Z,34.56
2019-06-26T04:34:36.668Z,34.55
2019-06-26T04:35:12.680Z,34.56
2019-06-26T04:35:48.503Z,34.50
2019-06-26T04:36:24.375Z,34.51
2019-06-26T04:37:00.218Z,34.52
2019-06-26T04:37:36.049Z,34.51
2019-06-26T04:38:11.871Z,34.52
2019-06-26T04:38:47.683Z,34.53
2019-06-26T04:39:23.530Z,34.54
2019-06-26T04:39:59.395Z,34.56
2019-06-26T04:40:35.397Z,34.58
2019-06-26T04:41:11.196Z,34.57
2019-06-26T04:41:47.059Z,34.57
2019-06-26T04:42:22.956Z,34.57
2019-06-26T04:42:58.912Z,34.56
2019-06-26T04:43:34.693Z,34.52
2019-06-26T04:44:10.515Z,34.49
2019-06-26T04:44:46.330Z,34.47
2019-06-26T04:45:22.183Z,34.42
2019-06-26T04:45:58.856Z,34.41
2019-06-26T04:46:34.947Z,34.44
2019-06-26T04:47:10.766Z,34.48
2019-06-26T04:47:46.587Z,34.44
2019-06-26T04:48:22.393Z,34.44
2019-06-26T04:48:58.362Z,34.45
2019-06-26T04:49:34.168Z,34.42
2019-06-26T04:50:10.325Z,34.39
2019-06-26T04:50:46.198Z,34.37
2019-06-26T04:51:22.146Z,34.36
2019-06-26T04:51:58.179Z,34.34
2019-06-26T04:52:34.021Z,34.33
2019-06-26T04:53:09.858Z,34.30
2019-06-26T04:53:45.677Z,34.32
2019-06-26T04:54:21.560Z,34.32
2019-06-26T04:54:57.382Z,34.34
2019-06-26T04:55:33.306Z,34.38
2019-06-26T04:56:09.261Z,34.44
2019-06-26T04:56:45.112Z,34.48
2019-06-26T04:57:21.103Z,34.48
2019-06-26T04:57:56.938Z,34.50
2019-06-26T04:58:32.828Z,34.52
2019-06-26T04:59:08.653Z,34.51
2019-06-26T04:59:44.498Z,34.52
2019-06-26T05:00:21.845Z,34.53
2019-06-26T05:00:57.948Z,34.51
2019-06-26T05:01:33.792Z,34.55
2019-06-26T05:02:09.620Z,34.60
2019-06-26T05:02:45.510Z,34.61
2019-06-26T05:03:21.417Z,34.63
2019-06-26T05:03:57.220Z,34.63
2019-06-26T05:04:34.207Z,34.66
2019-06-26T05:05:10.153Z,34.68
2019-06-26T05:05:45.996Z,34.69
2019-06-26T05:06:21.803Z,34.71
2019-06-26T05:06:57.785Z,34.74
2019-06-26T05:07:34.201Z,34.75
2019-06-26T05:08:10.079Z,34.76
2019-06-26T05:08:45.911Z,34.79
2019-06-26T05:09:21.869Z,34.79
2019-06-26T05:09:57.813Z,34.80
2019-06-26T05:10:33.652Z,34.79
2019-06-26T05:11:12.515Z,34.80
2019-06-26T05:11:47.159Z,34.84
2019-06-26T05:12:22.987Z,34.82
2019-06-26T05:12:58.839Z,34.84
2019-06-26T05:13:34.783Z,34.86
2019-06-26T05:14:10.727Z,34.83
2019-06-26T05:14:46.551Z,34.83
2019-06-26T05:15:22.610Z,34.85
2019-06-26T05:16:13.726Z,34.86
2019-06-26T05:16:36.122Z,34.87
2019-06-26T05:17:11.966Z,34.88
2019-06-26T05:17:47.797Z,34.92
2019-06-26T05:18:23.718Z,34.96
2019-06-26T05:18:59.724Z,35.02
2019-06-26T05:19:35.585Z,35.09
2019-06-26T05:20:11.998Z,35.14
2019-06-26T05:20:48.084Z,35.17
2019-06-26T05:21:24.009Z,35.17
2019-06-26T05:21:59.933Z,35.20
2019-06-26T05:22:35.736Z,35.20
2019-06-26T05:23:11.578Z,35.25
2019-06-26T05:23:47.392Z,35.27
2019-06-26T05:24:24.061Z,35.28
2019-06-26T05:24:59.845Z,35.29
2019-06-26T05:25:35.689Z,35.29
2019-06-26T05:26:11.512Z,35.31
2019-06-26T05:26:47.486Z,35.32
2019-06-26T05:27:23.298Z,35.32
2019-06-26T05:27:59.285Z,35.34
2019-06-26T05:28:35.100Z,35.34
2019-06-26T05:29:10.939Z,35.32
2019-06-26T05:29:46.898Z,35.30
2019-06-26T05:30:22.726Z,35.30
2019-06-26T05:30:58.709Z,35.31
2019-06-26T05:31:34.542Z,35.31
2019-06-26T05:32:10.402Z,35.27
2019-06-26T05:32:46.211Z,35.29
2019-06-26T05:33:22.051Z,35.33
2019-06-26T05:33:57.841Z,35.35
2019-06-26T05:34:33.777Z,35.36
2019-06-26T05:35:09.663Z,35.39
2019-06-26T05:35:45.496Z,35.42
2019-06-26T05:36:21.332Z,35.46
2019-06-26T05:36:57.212Z,35.48
2019-06-26T05:37:33.079Z,35.51
2019-06-26T05:38:08.910Z,35.53
2019-06-26T05:38:44.729Z,35.58
2019-06-26T05:39:20.557Z,35.65
2019-06-26T05:39:56.385Z,35.69
2019-06-26T05:40:32.248Z,35.73
2019-06-26T05:41:08.190Z,35.76
2019-06-26T05:41:44.027Z,35.74
2019-06-26T05:42:19.843Z,35.78
2019-06-26T05:42:55.741Z,35.84
2019-06-26T05:43:31.701Z,35.89
2019-06-26T05:44:07.537Z,35.91
2019-06-26T05:44:43.409Z,35.93
2019-06-26T05:45:19.291Z,35.93
2019-06-26T05:45:55.251Z,35.94
2019-06-26T05:46:31.881Z,35.92
2019-06-26T05:47:07.829Z,35.85
2019-06-26T05:47:43.693Z,35.83
2019-06-26T05:48:19.555Z,35.79
2019-06-26T05:48:55.393Z,35.74
2019-06-26T05:49:31.213Z,35.72
2019-06-26T05:50:07.744Z,35.70
2019-06-26T05:50:43.850Z,35.70
2019-06-26T05:51:19.703Z,35.71
2019-06-26T05:51:55.855Z,35.68
2019-06-26T05:52:31.647Z,35.64
2019-06-26T05:53:07.612Z,35.58
2019-06-26T05:53:43.440Z,35.55
2019-06-26T05:54:19.218Z,35.50
2019-06-26T05:54:55.157Z,35.45
2019-06-26T05:55:30.961Z,35.36
2019-06-26T05:56:06.850Z,35.29
2019-06-26T05:56:45.328Z,35.28
2019-06-26T05:57:20.721Z,35.26
2019-06-26T05:57:56.581Z,35.15
2019-06-26T05:58:32.455Z,35.13
2019-06-26T05:59:08.388Z,35.08
2019-06-26T05:59:44.454Z,35.05
2019-06-26T06:00:20.458Z,34.97
2019-06-26T06:00:56.252Z,34.92
2019-06-26T06:01:32.090Z,34.89
2019-06-26T06:02:07.950Z,34.87
2019-06-26T06:02:43.770Z,34.89
2019-06-26T06:03:19.716Z,34.88
2019-06-26T06:03:55.522Z,34.89
2019-06-26T06:04:31.506Z,34.91
2019-06-26T06:05:07.601Z,34.92
2019-06-26T06:05:43.427Z,34.95
2019-06-26T06:06:19.355Z,34.96
2019-06-26T06:06:55.214Z,34.99
2019-06-26T06:07:31.000Z,35.03
2019-06-26T06:08:06.841Z,35.05
2019-06-26T06:08:42.696Z,35.09
2019-06-26T06:09:18.665Z,35.13
2019-06-26T06:09:54.825Z,35.15
2019-06-26T06:10:31.366Z,35.19
2019-06-26T06:11:08.187Z,35.21
2019-06-26T06:11:44.848Z,35.28
2019-06-26T06:12:21.527Z,35.35
2019-06-26T06:12:57.855Z,35.44
2019-06-26T06:13:34.272Z,35.52
2019-06-26T06:14:10.659Z,35.62
2019-06-26T06:14:46.755Z,35.70
2019-06-26T06:15:23.236Z,35.77
2019-06-26T06:15:59.547Z,35.84
2019-06-26T06:16:46.814Z,35.93
2019-06-26T06:17:13.804Z,36.01
2019-06-26T06:17:50.108Z,36.14
2019-06-26T06:18:26.462Z,36.23
2019-06-26T06:19:02.923Z,36.31
2019-06-26T06:19:39.349Z,36.39
2019-06-26T06:20:16.087Z,36.41
2019-06-26T06:20:52.338Z,36.47
2019-06-26T06:21:28.896Z,36.47
2019-06-26T06:22:04.839Z,36.52
2019-06-26T06:22:40.851Z,36.52
2019-06-26T06:23:16.875Z,36.55
2019-06-26T06:23:53.455Z,36.53
2019-06-26T06:24:29.736Z,36.48
2019-06-26T06:25:06.086Z,36.37
2019-06-26T06:25:42.477Z,36.39
2019-06-26T06:26:18.832Z,36.42
2019-06-26T06:26:54.923Z,36.41
2019-06-26T06:27:31.444Z,36.44
2019-06-26T06:28:08.377Z,36.42
2019-06-26T06:28:44.853Z,36.43
2019-06-26T06:29:22.131Z,36.39
2019-06-26T06:29:58.604Z,36.34
2019-06-26T06:30:34.943Z,36.35
2019-06-26T06:31:11.168Z,36.34
2019-06-26T06:31:47.217Z,36.39
2019-06-26T06:32:23.410Z,36.43
2019-06-26T06:32:59.750Z,36.47
2019-06-26T06:33:36.066Z,36.50
2019-06-26T06:34:12.413Z,36.55
2019-06-26T06:34:48.660Z,36.49
2019-06-26T06:35:24.726Z,36.58
2019-06-26T06:36:02.333Z,36.62
2019-06-26T06:36:38.691Z,36.68
2019-06-26T06:37:14.796Z,36.76
2019-06-26T06:37:51.012Z,36.80
2019-06-26T06:38:27.436Z,36.79
2019-06-26T06:39:04.292Z,36.75
2019-06-26T06:39:40.191Z,36.67
2019-06-26T06:40:16.345Z,36.73
2019-06-26T06:40:52.232Z,36.75
2019-06-26T06:41:28.227Z,36.76
2019-06-26T06:42:04.221Z,36.78
2019-06-26T06:42:40.142Z,36.84
2019-06-26T06:43:16.661Z,36.83
2019-06-26T06:43:52.612Z,36.82
2019-06-26T06:44:28.494Z,36.82
2019-06-26T06:45:04.344Z,36.86
2019-06-26T06:45:40.197Z,36.88
2019-06-26T06:46:15.963Z,36.92
2019-06-26T06:47:03.245Z,36.99
2019-06-26T06:47:33.482Z,37.06
2019-06-26T06:48:09.315Z,37.07
2019-06-26T06:48:45.156Z,37.06
2019-06-26T06:49:20.962Z,37.06
2019-06-26T06:49:56.770Z,37.02
2019-06-26T06:50:32.618Z,36.99
2019-06-26T06:51:08.574Z,36.92
2019-06-26T06:51:44.435Z,36.89
2019-06-26T06:52:20.383Z,36.88
2019-06-26T06:52:56.321Z,36.82
2019-06-26T06:53:32.284Z,36.74
2019-06-26T06:54:08.297Z,36.73
2019-06-26T06:54:44.143Z,36.67
2019-06-26T06:55:20.030Z,36.61
2019-06-26T06:55:55.807Z,36.55
2019-06-26T06:56:31.680Z,36.50
2019-06-26T06:57:07.649Z,36.45
2019-06-26T07:09:25.274Z,35.51
2019-06-26T07:10:01.136Z,35.45
2019-06-26T07:10:36.965Z,35.48
2019-06-26T07:11:12.803Z,35.50
2019-06-26T07:11:48.552Z,35.46
2019-06-26T07:12:24.589Z,35.45
2019-06-26T07:13:00.705Z,35.43
2019-06-26T07:13:36.708Z,35.41
2019-06-26T07:14:12.569Z,35.39
2019-06-26T07:14:48.481Z,35.34
2019-06-26T07:15:24.320Z,35.33
2019-06-26T07:16:00.170Z,35.31
2019-06-26T07:16:36.002Z,35.28
2019-06-26T07:17:20.352Z,35.22
2019-06-26T07:17:49.487Z,35.22
2019-06-26T07:18:25.403Z,35.21
2019-06-26T07:19:01.230Z,35.19
2019-06-26T07:19:37.059Z,35.16
2019-06-26T07:20:13.322Z,35.11
2019-06-26T07:20:49.254Z,35.13
2019-06-26T07:21:25.166Z,35.13
2019-06-26T07:22:01.406Z,35.11
2019-06-26T07:22:37.242Z,35.09
2019-06-26T07:23:13.090Z,35.11
2019-06-26T07:23:48.983Z,35.12
2019-06-26T07:24:24.795Z,35.14
2019-06-26T07:25:00.626Z,35.16
2019-06-26T07:25:36.467Z,35.16
2019-06-26T07:26:13.397Z,35.19
2019-06-26T07:26:49.419Z,35.22
2019-06-26T07:27:25.371Z,35.24
2019-06-26T07:28:02.112Z,35.28
2019-06-26T07:28:41.190Z,35.30
2019-06-26T07:29:16.983Z,35.31
2019-06-26T07:29:52.798Z,35.34
2019-06-26T07:30:28.600Z,35.37
2019-06-26T07:31:04.505Z,35.39
2019-06-26T07:31:40.460Z,35.36
2019-06-26T07:32:16.332Z,35.36
2019-06-26T07:32:52.135Z,35.34
2019-06-26T07:33:28.011Z,35.32
2019-06-26T07:34:03.862Z,35.30
2019-06-26T07:34:39.719Z,35.27
2019-06-26T07:35:15.632Z,35.25
2019-06-26T07:35:51.452Z,35.25
2019-06-26T07:36:27.269Z,35.24
2019-06-26T07:37:03.152Z,35.22
2019-06-26T07:37:39.023Z,35.19
2019-06-26T07:38:14.956Z,35.16
2019-06-26T07:38:50.811Z,35.13
2019-06-26T07:39:26.632Z,35.05
2019-06-26T07:40:02.609Z,35.04
2019-06-26T07:40:38.482Z,35.02
2019-06-26T07:41:14.359Z,34.97
2019-06-26T07:41:50.234Z,34.91
2019-06-26T07:42:26.368Z,34.87
2019-06-26T07:43:02.285Z,34.86
2019-06-26T07:43:38.190Z,34.82
2019-06-26T07:44:14.011Z,34.80
2019-06-26T07:44:49.892Z,34.78
2019-06-26T07:45:25.669Z,34.77
2019-06-26T07:46:01.449Z,34.76
2019-06-26T07:46:37.267Z,34.76
2019-06-26T07:47:23.132Z,34.77
2019-06-26T07:47:50.710Z,34.79
2019-06-26T07:48:26.547Z,34.84
2019-06-26T07:49:02.535Z,34.85
2019-06-26T07:49:38.316Z,34.87
2019-06-26T07:50:14.380Z,34.89
2019-06-26T07:50:50.195Z,34.93
2019-06-26T07:51:26.042Z,34.95
2019-06-26T07:52:01.861Z,34.95
2019-06-26T07:52:37.687Z,34.94
2019-06-26T07:53:13.475Z,34.95
2019-06-26T07:53:49.325Z,34.98
2019-06-26T07:54:25.181Z,35.00
2019-06-26T07:55:01.142Z,35.04
2019-06-26T07:55:40.358Z,35.05
2019-06-26T07:56:14.637Z,35.04
2019-06-26T07:56:50.499Z,35.04
2019-06-26T07:57:26.302Z,35.03
2019-06-26T07:58:02.160Z,35.02
2019-06-26T07:58:38.038Z,35.01
2019-06-26T07:59:13.872Z,35.02
2019-06-26T07:59:49.787Z,35.04
2019-06-26T08:00:25.729Z,35.04
2019-06-26T08:01:01.558Z,35.09
2019-06-26T08:01:37.378Z,35.13
2019-06-26T08:02:13.348Z,35.11
2019-06-26T08:02:49.265Z,35.12
2019-06-26T08:03:25.165Z,35.12
2019-06-26T08:04:00.969Z,35.11
2019-06-26T08:04:36.824Z,35.13
2019-06-26T08:05:14.222Z,35.11
2019-06-26T08:05:50.032Z,35.11
2019-06-26T08:06:25.841Z,35.13
2019-06-26T08:07:01.735Z,35.15
2019-06-26T08:07:37.661Z,35.13
2019-06-26T08:08:14.883Z,35.16
2019-06-26T08:08:51.003Z,35.15
2019-06-26T08:09:26.900Z,35.13
2019-06-26T08:10:02.815Z,35.10
2019-06-26T08:10:38.644Z,35.12
2019-06-26T08:11:14.489Z,35.17
2019-06-26T08:11:50.381Z,35.16
2019-06-26T08:12:26.198Z,35.16
2019-06-26T08:13:02.077Z,35.15
2019-06-26T08:13:37.887Z,35.15
2019-06-26T08:14:13.755Z,35.14
2019-06-26T08:14:49.617Z,35.13
2019-06-26T08:15:25.542Z,35.14
2019-06-26T08:16:01.419Z,35.13
2019-06-26T08:16:37.331Z,35.12
2019-06-26T08:17:13.148Z,35.17
2019-06-26T08:17:59.860Z,35.19